createdAt,value
2022-12-11T19:02:08.544Z,99.10
2022-12-11T19:04:37.772Z,99.60
2022-12-11T19:07:05.797Z,99.70
2022-12-11T19:09:38.039Z,99.70
2022-12-11T19:12:07.115Z,99.70
2022-12-11T19:14:35.450Z,99.70
2022-12-11T19:17:04.198Z,99.70
2022-12-11T19:19:34.109Z,99.10
2022-12-11T19:22:02.261Z,98.90
2022-12-11T19:24:30.498Z,98.80
2022-12-11T19:26:58.880Z,98.90
2022-12-11T19:29:28.595Z,99.00
2022-12-11T19:31:57.285Z,99.10
2022-12-11T19:34:26.305Z,99.10
2022-12-11T19:36:56.170Z,99.20
2022-12-11T19:39:24.272Z,99.20
2022-12-11T19:41:52.425Z,99.20
2022-12-11T19:44:20.541Z,99.20
2022-12-11T19:46:48.801Z,99.20
2022-12-11T19:49:17.162Z,99.20
2022-12-11T19:51:45.342Z,99.20
2022-12-11T19:54:17.194Z,99.20
2022-12-11T19:56:45.516Z,99.20
2022-12-11T19:59:16.647Z,99.30
2022-12-11T20:01:46.753Z,99.30
2022-12-11T20:04:16.526Z,99.20
2022-12-11T20:06:46.883Z,99.10
2022-12-11T20:09:16.998Z,99.10
2022-12-11T20:11:47.417Z,99.10
2022-12-11T20:14:21.199Z,99.00
2022-12-11T20:19:37.955Z,98.90
2022-12-11T20:22:06.225Z,98.90
2022-12-11T20:24:35.842Z,99.00
2022-12-11T20:27:04.485Z,99.10
2022-12-11T20:29:32.514Z,99.20
2022-12-11T20:32:00.829Z,99.20
2022-12-11T20:34:28.879Z,99.20
2022-12-11T20:36:57.150Z,99.20
2022-12-11T20:39:25.448Z,99.50
2022-12-11T20:41:54.873Z,99.30
2022-12-11T20:44:22.939Z,99.30
2022-12-11T20:46:51.584Z,99.40
2022-12-11T20:49:19.650Z,99.40
2022-12-11T20:51:47.870Z,99.50
2022-12-11T20:54:15.889Z,99.50
2022-12-11T20:56:43.929Z,99.60
2022-12-11T20:59:13.553Z,99.60
2022-12-11T21:01:41.692Z,99.70
2022-12-11T21:04:10.022Z,99.70
2022-12-11T21:06:40.518Z,99.70
2022-12-11T21:09:10.868Z,99.80
2022-12-11T21:11:39.315Z,99.80
2022-12-11T21:14:08.068Z,99.80
2022-12-11T21:16:38.815Z,99.80
2022-12-11T21:19:11.279Z,99.90
2022-12-11T21:21:41.930Z,99.90
2022-12-11T21:24:15.169Z,99.90
2022-12-11T21:26:43.207Z,99.90
2022-12-11T21:29:11.761Z,99.90
2022-12-11T21:31:41.213Z,99.90
2022-12-11T21:34:10.083Z,99.90
2022-12-11T21:36:38.085Z,99.90
2022-12-11T21:39:07.197Z,99.90
2022-12-11T21:41:35.320Z,99.90
2022-12-11T21:45:14.580Z,99.90
2022-12-11T21:46:53.262Z,99.90
2022-12-11T21:49:21.857Z,99.90
2022-12-11T21:51:50.087Z,99.90
2022-12-11T21:54:20.629Z,99.90
2022-12-11T21:56:48.916Z,99.90
2022-12-11T21:59:17.193Z,99.90
2022-12-11T22:01:46.972Z,99.90
2022-12-11T22:04:17.077Z,99.90
2022-12-11T22:06:47.017Z,99.90
2022-12-11T22:09:16.538Z,99.90
2022-12-11T22:11:46.168Z,99.90
2022-12-11T22:14:16.118Z,99.90
2022-12-11T22:16:44.399Z,99.90
2022-12-11T22:19:12.951Z,99.90
2022-12-11T22:21:42.696Z,99.90
2022-12-11T22:24:11.031Z,99.90
2022-12-11T22:26:40.023Z,99.90
2022-12-11T22:29:08.422Z,99.90
2022-12-11T22:31:36.454Z,99.90
2022-12-11T22:34:04.624Z,99.90
2022-12-11T22:36:32.664Z,99.90
2022-12-11T22:39:03.029Z,99.90
2022-12-11T22:41:38.518Z,99.90
2022-12-11T22:44:06.531Z,99.90
2022-12-11T22:46:35.089Z,99.90
2022-12-11T22:49:03.159Z,99.90
2022-12-11T22:51:31.527Z,99.90
2022-12-11T22:54:00.471Z,99.90
2022-12-11T22:56:30.038Z,99.90
2022-12-11T22:58:59.038Z,99.90
2022-12-11T23:01:28.943Z,99.90
2022-12-11T23:03:57.276Z,99.90
2022-12-11T23:06:26.004Z,99.90
2022-12-11T23:08:55.271Z,99.90
2022-12-11T23:11:25.783Z,99.90
2022-12-11T23:13:55.859Z,99.90
2022-12-11T23:16:25.273Z,99.90
2022-12-11T23:18:54.057Z,99.90
2022-12-11T23:21:22.736Z,99.90
2022-12-11T23:23:51.237Z,99.90
2022-12-11T23:26:19.641Z,99.90
2022-12-11T23:28:48.629Z,99.90
2022-12-11T23:31:18.531Z,99.90
2022-12-11T23:33:47.052Z,99.90
2022-12-11T23:36:15.087Z,99.90
2022-12-11T23:38:44.417Z,99.90
2022-12-11T23:41:16.116Z,99.90
2022-12-11T23:43:44.602Z,99.90
2022-12-11T23:46:14.763Z,99.90
2022-12-11T23:48:44.790Z,99.90
2022-12-11T23:51:15.179Z,99.90
2022-12-11T23:53:43.974Z,99.90
2022-12-11T23:56:15.982Z,99.90
2022-12-11T23:58:44.359Z,99.90
